createdAt,value
2023-10-18T00:00:59.426Z,8.77
2023-10-18T00:03:28.026Z,9.48
2023-10-18T00:05:57.770Z,8.07
2023-10-18T00:08:25.504Z,8.00
2023-10-18T00:11:01.369Z,7.03
2023-10-18T00:13:29.219Z,9.00
2023-10-18T00:16:02.015Z,9.07
2023-10-18T00:21:03.294Z,7.18
2023-10-18T00:23:32.687Z,7.82
2023-10-18T00:26:01.841Z,9.48
2023-10-18T00:28:29.690Z,6.90
2023-10-18T00:30:57.678Z,12.57
2023-10-18T00:33:25.478Z,11.32
2023-10-18T00:35:58.655Z,7.03
2023-10-18T00:38:29.460Z,10.63
2023-10-18T00:40:58.137Z,7.18
2023-10-18T00:43:27.982Z,7.90
2023-10-18T00:45:57.997Z,8.40
2023-10-18T00:48:29.092Z,7.43
2023-10-18T00:50:59.173Z,7.57
2023-10-18T00:53:32.409Z,7.25
2023-10-18T00:56:02.377Z,8.15
2023-10-18T00:58:31.440Z,7.55
2023-10-18T01:01:00.848Z,11.32
2023-10-18T01:03:32.400Z,8.98
2023-10-18T01:06:01.872Z,10.20
2023-10-18T01:08:31.676Z,9.52
2023-10-18T01:11:05.141Z,7.75
2023-10-18T01:13:35.807Z,7.65
2023-10-18T01:16:09.339Z,8.25
2023-10-18T01:18:37.349Z,8.90
2023-10-18T01:21:15.945Z,10.35
2023-10-18T01:23:50.730Z,6.65
2023-10-18T01:26:22.328Z,7.18
2023-10-18T01:28:52.007Z,8.52
2023-10-18T01:31:20.501Z,7.90
2023-10-18T01:33:49.128Z,9.35
2023-10-18T01:36:18.336Z,6.82
2023-10-18T01:38:51.093Z,9.45
2023-10-18T01:43:59.273Z,8.73
2023-10-18T01:46:27.163Z,6.88
2023-10-18T01:48:55.748Z,12.48
2023-10-18T01:51:23.584Z,7.22
2023-10-18T01:53:52.582Z,9.43
2023-10-18T01:56:22.893Z,8.02
2023-10-18T01:58:51.114Z,8.05
2023-10-18T02:01:19.779Z,10.50
2023-10-18T02:03:51.499Z,6.47
2023-10-18T02:06:21.572Z,11.38
2023-10-18T02:08:50.951Z,6.97
2023-10-18T02:11:18.748Z,7.55
2023-10-18T02:13:47.908Z,10.57
2023-10-18T02:16:17.320Z,8.18
2023-10-18T02:18:48.055Z,10.20
2023-10-18T02:21:16.782Z,7.40
2023-10-18T02:23:48.080Z,11.00
2023-10-18T02:26:31.873Z,8.82
2023-10-18T02:29:06.917Z,7.72
2023-10-18T02:31:35.423Z,9.13
2023-10-18T02:34:15.167Z,7.75
2023-10-18T02:36:50.789Z,6.93
2023-10-18T02:39:24.367Z,8.02
2023-10-18T02:41:55.229Z,10.30
2023-10-18T02:44:25.107Z,9.38
2023-10-18T02:46:54.148Z,8.35
2023-10-18T02:49:23.552Z,9.30
2023-10-18T02:51:52.351Z,9.30
2023-10-18T02:54:25.616Z,8.32
2023-10-18T02:56:54.314Z,10.70
2023-10-18T02:59:26.242Z,9.60
2023-10-18T03:01:56.941Z,9.23
2023-10-18T03:04:28.548Z,7.18
2023-10-18T03:06:57.457Z,10.95
2023-10-18T03:09:29.660Z,8.77
2023-10-18T03:11:58.983Z,7.63
2023-10-18T03:14:40.861Z,9.00
2023-10-18T03:17:19.473Z,8.15
2023-10-18T03:19:51.472Z,8.40
2023-10-18T03:22:22.540Z,9.03
2023-10-18T03:24:52.187Z,8.35
2023-10-18T03:27:20.519Z,8.80
2023-10-18T03:29:49.836Z,8.60
2023-10-18T03:32:20.314Z,10.27
2023-10-18T03:34:48.845Z,9.15
2023-10-18T03:37:22.379Z,8.50
2023-10-18T03:39:53.808Z,8.93
2023-10-18T03:42:39.015Z,10.15
2023-10-18T03:45:12.356Z,8.15
2023-10-18T03:47:40.905Z,10.48
2023-10-18T03:50:14.687Z,8.68
2023-10-18T03:52:42.994Z,10.05
2023-10-18T03:55:17.046Z,9.48
2023-10-18T03:57:45.002Z,9.93
2023-10-18T04:00:38.194Z,8.57
2023-10-18T04:03:13.237Z,8.77
2023-10-18T04:05:44.071Z,9.27
2023-10-18T04:08:15.055Z,11.10
2023-10-18T04:10:43.772Z,11.45
2023-10-18T04:13:12.974Z,10.65
2023-10-18T04:15:46.953Z,8.82
2023-10-18T04:18:16.522Z,9.40
2023-10-18T04:20:47.808Z,11.93
2023-10-18T04:23:19.773Z,9.07
2023-10-18T04:25:58.547Z,9.55
2023-10-18T04:28:27.051Z,9.02
2023-10-18T04:31:00.991Z,8.82
2023-10-18T04:33:36.100Z,9.48
2023-10-18T04:36:10.385Z,10.65
2023-10-18T04:38:43.719Z,12.77
2023-10-18T04:41:23.809Z,13.45
2023-10-18T04:43:53.234Z,8.80
2023-10-18T04:46:28.735Z,9.88
2023-10-18T04:49:17.602Z,10.25
2023-10-18T04:51:49.658Z,9.85
2023-10-18T04:54:24.939Z,11.52
2023-10-18T04:56:57.681Z,10.80
2023-10-18T05:02:17.370Z,9.13
2023-10-18T05:04:47.597Z,10.15
2023-10-18T05:07:17.189Z,9.27
2023-10-18T05:09:47.602Z,9.65
2023-10-18T05:12:28.788Z,11.43
2023-10-18T05:15:10.404Z,11.23
2023-10-18T05:17:43.832Z,13.80
2023-10-18T05:20:23.273Z,12.20
2023-10-18T05:22:54.083Z,12.25
2023-10-18T05:25:31.108Z,16.67
2023-10-18T05:28:02.333Z,10.82
2023-10-18T05:30:51.312Z,10.15
2023-10-18T05:33:48.908Z,10.98
2023-10-18T05:36:34.387Z,14.48
2023-10-18T05:39:23.536Z,11.55
2023-10-18T05:41:52.310Z,18.35
2023-10-18T05:44:22.074Z,13.77
2023-10-18T05:46:52.225Z,23.40
2023-10-18T05:49:30.008Z,10.55
2023-10-18T05:52:17.194Z,13.40
2023-10-18T05:54:46.159Z,12.75
2023-10-18T05:57:17.882Z,11.32
2023-10-18T05:59:50.162Z,10.73
2023-10-18T06:02:25.389Z,12.80
2023-10-18T06:04:57.368Z,12.23
2023-10-18T06:07:25.642Z,9.98
2023-10-18T06:10:02.218Z,11.15
2023-10-18T06:12:38.648Z,23.00
2023-10-18T06:15:17.886Z,13.52
2023-10-18T06:17:49.291Z,10.75
2023-10-18T06:20:28.589Z,11.88
2023-10-18T06:23:10.228Z,12.23
2023-10-18T06:25:45.199Z,10.90
2023-10-18T06:28:13.257Z,13.30
2023-10-18T06:30:44.213Z,13.07
2023-10-18T06:33:16.518Z,15.48
2023-10-18T06:35:52.578Z,13.57
2023-10-18T06:38:23.391Z,11.35
2023-10-18T06:43:33.902Z,18.77
2023-10-18T06:46:05.984Z,11.63
2023-10-18T06:48:34.849Z,16.35
2023-10-18T06:51:12.789Z,15.52
2023-10-18T06:53:42.322Z,19.20
2023-10-18T06:56:20.786Z,16.70
2023-10-18T06:58:48.954Z,13.57
2023-10-18T07:01:21.237Z,14.73
2023-10-18T07:03:53.500Z,15.45
2023-10-18T07:06:25.614Z,12.37
2023-10-18T07:08:57.049Z,15.32
2023-10-18T07:11:41.724Z,12.98
2023-10-18T07:14:14.478Z,13.05
2023-10-18T07:16:43.476Z,25.33
2023-10-18T07:19:26.429Z,20.70
2023-10-18T07:22:00.744Z,29.90
2023-10-18T07:24:35.644Z,60.47
2023-10-18T07:27:05.126Z,20.33
2023-10-18T07:29:37.486Z,27.30
2023-10-18T07:32:08.239Z,28.40
2023-10-18T07:34:37.988Z,20.13
2023-10-18T07:37:20.730Z,20.23
2023-10-18T07:39:53.625Z,26.17
2023-10-18T07:42:22.033Z,16.48
2023-10-18T07:44:54.475Z,16.02
2023-10-18T07:47:26.440Z,13.05
2023-10-18T07:50:03.101Z,18.98
2023-10-18T07:52:32.206Z,15.95
2023-10-18T07:55:00.033Z,17.13
2023-10-18T07:57:35.072Z,13.70
2023-10-18T08:00:17.196Z,14.48
2023-10-18T08:02:48.041Z,11.50
2023-10-18T08:05:20.385Z,16.77
2023-10-18T08:07:52.947Z,19.33
2023-10-18T08:10:22.377Z,12.27
2023-10-18T08:13:05.367Z,12.02
2023-10-18T08:15:37.347Z,11.55
2023-10-18T08:18:16.214Z,11.43
2023-10-18T08:20:56.579Z,16.02
2023-10-18T08:23:40.335Z,14.73
2023-10-18T08:26:09.420Z,18.45
2023-10-18T08:28:43.450Z,15.70
2023-10-18T08:31:16.958Z,21.05
2023-10-18T08:33:45.206Z,12.30
2023-10-18T08:36:30.386Z,14.57
2023-10-18T08:38:59.740Z,13.75
2023-10-18T08:41:35.257Z,13.70
2023-10-18T08:44:20.400Z,15.15
2023-10-18T08:46:56.311Z,14.25
2023-10-18T08:49:33.403Z,16.02
2023-10-18T08:52:09.439Z,15.25
2023-10-18T08:54:42.239Z,15.40
2023-10-18T08:57:11.400Z,16.92
2023-10-18T08:59:47.331Z,13.15
2023-10-18T09:02:19.304Z,15.57
2023-10-18T09:04:56.445Z,17.60
2023-10-18T09:07:45.038Z,13.32
2023-10-18T09:10:34.852Z,15.25
2023-10-18T09:13:24.777Z,12.40
2023-10-18T09:16:00.886Z,11.60
2023-10-18T09:18:34.019Z,14.07
2023-10-18T09:21:11.489Z,11.90
2023-10-18T09:23:41.986Z,13.32
2023-10-18T09:26:14.251Z,14.52
2023-10-18T09:28:44.193Z,12.00
2023-10-18T09:31:23.014Z,11.82
2023-10-18T09:33:56.058Z,16.58
2023-10-18T09:36:25.203Z,19.50
2023-10-18T09:38:55.112Z,13.50
2023-10-18T09:41:28.100Z,18.13
2023-10-18T09:43:55.853Z,14.00
2023-10-18T09:46:23.708Z,12.38
2023-10-18T09:48:51.828Z,13.93
2023-10-18T09:51:22.492Z,13.07
2023-10-18T09:53:51.957Z,13.02
2023-10-18T09:56:25.561Z,14.25
2023-10-18T09:59:06.348Z,14.63
2023-10-18T10:01:48.867Z,11.80
2023-10-18T10:04:19.617Z,12.13
2023-10-18T10:06:48.508Z,14.27
2023-10-18T10:09:18.679Z,14.50
2023-10-18T10:11:48.116Z,13.48
2023-10-18T10:14:18.486Z,17.70
2023-10-18T10:16:55.752Z,14.93
2023-10-18T10:19:30.854Z,16.30
2023-10-18T10:22:06.015Z,13.52
2023-10-18T10:24:36.891Z,13.43
2023-10-18T10:27:23.185Z,16.40
2023-10-18T10:29:57.577Z,13.20
2023-10-18T10:32:30.152Z,11.27
2023-10-18T10:35:18.177Z,12.82
2023-10-18T10:37:50.290Z,12.30
2023-10-18T10:40:37.207Z,15.80
2023-10-18T10:43:10.070Z,13.30
2023-10-18T10:45:55.133Z,14.02
2023-10-18T10:48:33.706Z,17.80
2023-10-18T10:51:13.253Z,13.55
2023-10-18T10:53:49.709Z,14.60
2023-10-18T10:56:44.347Z,18.30
2023-10-18T10:59:18.672Z,15.98
2023-10-18T11:01:58.948Z,14.57
2023-10-18T11:04:50.649Z,14.55
2023-10-18T11:07:26.349Z,16.63
2023-10-18T11:10:01.102Z,12.50
2023-10-18T11:12:30.730Z,12.90
2023-10-18T11:15:01.799Z,15.55
2023-10-18T11:17:31.138Z,14.80
2023-10-18T11:20:01.045Z,18.38
2023-10-18T11:22:32.607Z,14.30
2023-10-18T11:25:03.908Z,15.27
2023-10-18T11:27:37.268Z,16.17
2023-10-18T11:30:16.866Z,17.20
2023-10-18T11:32:49.530Z,20.55
2023-10-18T11:35:20.184Z,14.73
2023-10-18T11:37:49.089Z,14.75
2023-10-18T11:40:17.366Z,17.98
2023-10-18T11:42:56.238Z,14.48
2023-10-18T11:45:29.249Z,14.68
2023-10-18T11:48:00.937Z,14.20
2023-10-18T11:50:41.503Z,18.77
2023-10-18T11:53:11.636Z,14.90
2023-10-18T11:55:57.186Z,16.40
2023-10-18T11:58:25.583Z,16.65
2023-10-18T12:00:59.502Z,13.88
2023-10-18T12:03:30.093Z,12.60
2023-10-18T12:05:59.037Z,17.00
2023-10-18T12:08:31.459Z,17.05
2023-10-18T12:11:05.794Z,14.35
2023-10-18T12:13:35.018Z,13.73
2023-10-18T12:16:03.205Z,20.58
2023-10-18T12:18:33.414Z,15.00
2023-10-18T12:21:01.362Z,15.40
2023-10-18T12:23:30.040Z,16.00
2023-10-18T12:26:00.976Z,13.13
2023-10-18T12:28:30.077Z,15.70
2023-10-18T12:31:02.163Z,18.48
2023-10-18T12:33:34.571Z,14.55
2023-10-18T12:36:02.434Z,17.65
2023-10-18T12:38:38.112Z,15.13
2023-10-18T12:41:21.182Z,16.63
2023-10-18T12:43:52.714Z,17.40
2023-10-18T12:46:22.893Z,16.42
2023-10-18T12:48:53.109Z,16.60
2023-10-18T12:51:21.331Z,16.73
2023-10-18T12:53:49.455Z,16.30
2023-10-18T12:56:33.819Z,15.02
2023-10-18T12:59:23.425Z,15.10
2023-10-18T13:01:51.781Z,16.83
2023-10-18T13:04:20.036Z,13.55
2023-10-18T13:06:48.654Z,16.52
2023-10-18T13:09:20.093Z,18.13
2023-10-18T13:12:01.637Z,25.65
2023-10-18T13:14:34.229Z,23.75
2023-10-18T13:17:06.940Z,17.10
2023-10-18T13:19:42.720Z,20.40
2023-10-18T13:22:18.268Z,19.27
2023-10-18T13:24:46.160Z,18.05
2023-10-18T13:27:16.725Z,15.20
2023-10-18T13:29:52.731Z,19.10
2023-10-18T13:32:20.602Z,14.77
2023-10-18T13:34:49.789Z,14.63
2023-10-18T13:37:19.073Z,20.27
2023-10-18T13:39:49.257Z,13.45
2023-10-18T13:42:20.062Z,24.42
2023-10-18T13:44:48.197Z,15.05
2023-10-18T13:47:16.018Z,15.80
2023-10-18T13:49:44.902Z,15.75
2023-10-18T13:52:14.039Z,16.92
2023-10-18T13:54:42.975Z,22.08
2023-10-18T13:57:11.036Z,15.40
2023-10-18T13:59:40.251Z,15.45
2023-10-18T14:02:08.687Z,14.68
2023-10-18T14:04:36.997Z,14.80
2023-10-18T14:07:06.683Z,13.57
2023-10-18T14:09:36.730Z,18.65
2023-10-18T14:12:05.482Z,18.45
2023-10-18T14:14:34.880Z,14.68
2023-10-18T14:17:04.735Z,15.05
2023-10-18T14:19:34.078Z,12.98
2023-10-18T14:22:02.501Z,15.65
2023-10-18T14:24:31.176Z,14.82
2023-10-18T14:27:01.198Z,12.15
2023-10-18T14:29:30.674Z,21.60
2023-10-18T14:31:58.893Z,14.50
2023-10-18T14:34:26.822Z,14.38
2023-10-18T14:36:54.679Z,39.47
2023-10-18T14:41:56.224Z,22.33
2023-10-18T14:44:26.079Z,15.18
2023-10-18T14:46:54.188Z,16.10
2023-10-18T14:49:22.652Z,12.30
2023-10-18T14:51:50.567Z,18.20
2023-10-18T14:54:20.099Z,18.00
2023-10-18T14:56:48.455Z,25.92
2023-10-18T14:59:16.772Z,22.83
2023-10-18T15:01:45.873Z,18.10
2023-10-18T15:04:13.876Z,20.00
2023-10-18T15:06:41.901Z,21.33
2023-10-18T15:09:17.022Z,18.52
2023-10-18T15:11:45.030Z,16.50
2023-10-18T15:14:15.758Z,14.85
2023-10-18T15:16:47.853Z,17.92
2023-10-18T15:19:16.075Z,19.15
2023-10-18T15:21:47.120Z,32.78
2023-10-18T15:24:15.193Z,18.92
2023-10-18T15:26:45.689Z,15.60
2023-10-18T15:29:17.826Z,15.07
2023-10-18T15:31:47.784Z,14.70
2023-10-18T15:34:15.570Z,14.07
2023-10-18T15:36:48.492Z,17.27
2023-10-18T15:39:19.734Z,23.67
2023-10-18T15:41:52.480Z,19.85
2023-10-18T15:44:23.954Z,14.20
2023-10-18T15:46:57.598Z,14.68
2023-10-18T15:49:29.988Z,15.77
2023-10-18T15:51:58.091Z,18.88
2023-10-18T15:54:25.824Z,16.48
2023-10-18T15:56:53.617Z,18.42
2023-10-18T15:59:21.592Z,19.90
2023-10-18T16:01:58.398Z,16.08
2023-10-18T16:04:29.229Z,15.77
2023-10-18T16:06:57.376Z,21.20
2023-10-18T16:09:28.647Z,29.17
2023-10-18T16:11:56.831Z,15.57
2023-10-18T16:14:26.131Z,19.98
2023-10-18T16:16:54.037Z,13.13
2023-10-18T16:19:22.417Z,30.83
2023-10-18T16:21:51.584Z,22.38
2023-10-18T16:24:24.125Z,23.85
2023-10-18T16:26:51.921Z,17.83
2023-10-18T16:29:20.629Z,20.60
2023-10-18T16:31:48.490Z,11.48
2023-10-18T16:34:17.147Z,12.38
2023-10-18T16:36:45.033Z,12.13
2023-10-18T16:39:19.396Z,12.77
2023-10-18T16:41:50.478Z,15.98
2023-10-18T16:44:19.968Z,14.85
2023-10-18T16:46:47.949Z,16.70
2023-10-18T16:49:16.615Z,20.85
2023-10-18T16:51:44.503Z,17.38
2023-10-18T16:54:13.074Z,13.30
2023-10-18T16:56:48.076Z,17.10
2023-10-18T16:59:16.181Z,12.45
2023-10-18T17:01:44.462Z,12.68
2023-10-18T17:04:13.108Z,18.00
2023-10-18T17:06:40.947Z,16.63
2023-10-18T17:09:17.803Z,15.05
2023-10-18T17:11:47.177Z,16.55
2023-10-18T17:14:19.879Z,18.65
2023-10-18T17:16:48.149Z,18.00
2023-10-18T17:19:16.513Z,16.70
2023-10-18T17:21:44.646Z,16.30
2023-10-18T17:24:15.290Z,13.57
2023-10-18T17:26:44.110Z,15.20
2023-10-18T17:29:13.576Z,13.85
2023-10-18T17:31:41.395Z,12.65
2023-10-18T17:34:12.563Z,21.92
2023-10-18T17:36:41.382Z,15.63
2023-10-18T17:39:10.029Z,15.77
2023-10-18T17:41:37.971Z,11.80
2023-10-18T17:44:06.366Z,11.32
2023-10-18T17:46:36.183Z,17.10
2023-10-18T17:49:04.717Z,14.57
2023-10-18T17:51:32.574Z,14.82
2023-10-18T17:54:00.375Z,10.45
2023-10-18T17:56:28.873Z,12.10
2023-10-18T17:58:56.806Z,15.50
2023-10-18T18:01:25.369Z,13.75
2023-10-18T18:03:57.395Z,11.57
2023-10-18T18:20:57.916Z,13.73
2023-10-18T18:23:26.226Z,14.88
2023-10-18T18:25:57.039Z,13.02
2023-10-18T18:28:25.086Z,14.63
2023-10-18T18:30:53.350Z,17.02
2023-10-18T18:33:21.206Z,13.80
2023-10-18T18:35:49.061Z,14.77
2023-10-18T18:38:18.778Z,15.75
2023-10-18T18:40:46.608Z,15.85
2023-10-18T18:43:14.430Z,15.57
2023-10-18T18:45:43.283Z,17.65
2023-10-18T18:48:13.705Z,18.75
2023-10-18T18:50:41.966Z,18.45
2023-10-18T18:53:09.883Z,15.50
2023-10-18T18:55:39.007Z,17.13
2023-10-18T18:58:06.786Z,13.90
2023-10-18T19:00:34.632Z,21.30
2023-10-18T19:03:04.598Z,16.30
2023-10-18T19:05:33.348Z,16.83
2023-10-18T19:08:01.329Z,16.15
2023-10-18T19:10:29.336Z,16.25
2023-10-18T19:12:59.139Z,12.73
2023-10-18T19:15:27.956Z,15.77
2023-10-18T19:17:55.805Z,15.70
2023-10-18T19:20:25.689Z,15.35
2023-10-18T19:22:55.416Z,14.35
2023-10-18T19:25:23.760Z,14.52
2023-10-18T19:27:51.535Z,14.88
2023-10-18T19:30:21.619Z,9.70
2023-10-18T19:32:49.798Z,10.23
2023-10-18T19:35:18.360Z,8.43
2023-10-18T19:37:46.775Z,9.30
2023-10-18T19:40:14.987Z,11.10
2023-10-18T19:42:43.294Z,8.52
2023-10-18T19:45:14.276Z,11.35
2023-10-18T19:47:43.680Z,13.57
2023-10-18T19:50:12.470Z,9.80
2023-10-18T19:52:40.252Z,12.40
2023-10-18T19:55:08.976Z,10.77
2023-10-18T19:57:37.296Z,10.57
2023-10-18T20:00:08.626Z,11.70
2023-10-18T20:02:37.498Z,10.70
2023-10-18T20:05:07.864Z,14.00
2023-10-18T20:07:36.274Z,15.48
2023-10-18T20:10:04.371Z,12.02
2023-10-18T20:12:32.561Z,12.50
2023-10-18T20:15:00.462Z,17.42
2023-10-18T20:17:28.397Z,16.05
2023-10-18T20:19:56.454Z,13.63
2023-10-18T20:22:25.722Z,17.63
2023-10-18T20:24:54.397Z,15.57
2023-10-18T20:27:22.348Z,13.38
2023-10-18T20:29:50.116Z,12.07
2023-10-18T20:32:18.300Z,13.43
2023-10-18T20:34:46.857Z,19.02
2023-10-18T20:37:14.982Z,16.45
2023-10-18T20:39:51.308Z,14.25
2023-10-18T20:42:20.906Z,15.82
2023-10-18T20:44:49.936Z,16.20
2023-10-18T20:47:19.244Z,18.05
2023-10-18T20:49:51.842Z,14.25
2023-10-18T20:52:19.903Z,16.00
2023-10-18T20:54:49.969Z,18.27
2023-10-18T20:57:23.711Z,18.63
2023-10-18T20:59:51.479Z,14.63
2023-10-18T21:02:20.641Z,17.13
2023-10-18T21:04:49.183Z,18.13
2023-10-18T21:07:26.297Z,19.58
2023-10-18T21:09:55.591Z,20.95
2023-10-18T21:12:27.582Z,21.42
2023-10-18T21:14:55.666Z,16.23
2023-10-18T21:17:23.554Z,17.13
2023-10-18T21:19:51.376Z,14.48
2023-10-18T21:22:21.335Z,16.83
2023-10-18T21:24:50.119Z,16.77
2023-10-18T21:27:19.366Z,17.80
2023-10-18T21:29:47.096Z,18.63
2023-10-18T21:32:15.056Z,15.93
2023-10-18T21:34:44.184Z,17.38
2023-10-18T21:37:12.816Z,15.50
2023-10-18T21:39:40.591Z,16.65
2023-10-18T21:42:08.681Z,18.25
2023-10-18T21:44:38.592Z,16.77
2023-10-18T21:47:06.537Z,18.92
2023-10-18T21:49:34.447Z,17.13
2023-10-18T21:52:02.294Z,22.42
2023-10-18T21:54:30.324Z,18.92
2023-10-18T21:56:58.338Z,23.35
2023-10-18T21:59:26.130Z,18.80
2023-10-18T22:02:00.693Z,21.17
2023-10-18T22:04:33.007Z,17.77
2023-10-18T22:07:05.624Z,20.90
2023-10-18T22:09:33.656Z,18.50
2023-10-18T22:12:04.332Z,17.15
2023-10-18T22:14:32.763Z,17.80
2023-10-18T22:17:06.580Z,18.00
2023-10-18T22:19:37.407Z,20.60
2023-10-18T22:22:14.023Z,19.27
2023-10-18T22:24:42.165Z,17.52
2023-10-18T22:27:16.171Z,16.80
2023-10-18T22:29:48.347Z,18.27
2023-10-18T22:32:21.198Z,19.08
2023-10-18T22:34:51.648Z,17.33
2023-10-18T22:37:23.615Z,18.65
2023-10-18T22:39:52.806Z,24.53
2023-10-18T22:42:26.565Z,22.45
2023-10-18T22:45:10.973Z,19.73
2023-10-18T22:47:45.036Z,21.85
2023-10-18T22:50:22.570Z,23.60
2023-10-18T22:52:54.637Z,23.77
2023-10-18T22:55:27.403Z,24.90
2023-10-18T22:57:59.388Z,25.73
2023-10-18T23:00:34.877Z,24.83
2023-10-18T23:03:10.971Z,23.35
2023-10-18T23:05:41.831Z,24.80
2023-10-18T23:08:21.760Z,25.73
2023-10-18T23:10:57.430Z,24.75
2023-10-18T23:13:26.961Z,24.58
2023-10-18T23:15:58.563Z,24.85
2023-10-18T23:18:31.804Z,25.33
2023-10-18T23:21:30.200Z,24.95
2023-10-18T23:24:08.538Z,24.83
2023-10-18T23:26:53.737Z,25.05
2023-10-18T23:29:24.232Z,27.05
2023-10-18T23:32:11.060Z,24.48
2023-10-18T23:34:51.038Z,24.30
2023-10-18T23:37:38.798Z,25.67
2023-10-18T23:40:17.016Z,29.75
2023-10-18T23:42:52.552Z,28.65
2023-10-18T23:45:25.864Z,26.00
2023-10-18T23:48:11.601Z,26.80
2023-10-18T23:50:51.858Z,25.23
2023-10-18T23:53:27.021Z,29.20
2023-10-18T23:55:55.173Z,29.15
2023-10-18T23:58:31.007Z,34.67
